createdAt,value
2017-12-01T00:01:12.471Z,50.17
2017-12-01T00:03:40.525Z,57.30
2017-12-01T00:06:09.432Z,58.35
2017-12-01T00:08:37.514Z,60.90
2017-12-01T00:11:05.582Z,50.97
2017-12-01T00:13:33.653Z,56.00
2017-12-01T00:16:02.047Z,58.08
2017-12-01T00:18:30.895Z,56.97
2017-12-01T00:20:58.971Z,49.60
2017-12-01T00:23:27.039Z,55.88
2017-12-01T00:25:55.110Z,46.80
2017-12-01T00:28:23.297Z,57.55
2017-12-01T00:30:51.363Z,51.88
2017-12-01T00:33:19.439Z,49.42
2017-12-01T00:35:47.519Z,54.47
2017-12-01T00:38:15.592Z,55.22
2017-12-01T00:40:44.161Z,50.30
2017-12-01T00:43:12.397Z,47.15
2017-12-01T00:45:40.677Z,45.05
2017-12-01T00:48:08.731Z,56.67
2017-12-01T00:50:36.807Z,56.75
2017-12-01T00:53:05.732Z,55.22
2017-12-01T00:55:33.832Z,51.10
2017-12-01T00:58:01.904Z,50.35
2017-12-01T01:00:29.988Z,53.30
2017-12-01T01:02:58.852Z,46.80
2017-12-01T01:05:26.932Z,44.67
2017-12-01T01:07:55.824Z,52.55
2017-12-01T01:10:23.897Z,48.80
2017-12-01T01:12:53.618Z,46.67
2017-12-01T01:15:22.467Z,49.67
2017-12-01T01:17:51.944Z,45.80
2017-12-01T01:20:20.011Z,54.10
2017-12-01T01:22:48.075Z,45.83
2017-12-01T01:25:16.149Z,49.85
2017-12-01T01:27:44.227Z,53.85
2017-12-01T01:30:12.300Z,50.90
2017-12-01T01:32:40.379Z,51.22
2017-12-01T01:35:08.477Z,48.47
2017-12-01T01:37:36.551Z,48.22
2017-12-01T01:40:04.714Z,48.97
2017-12-01T01:42:32.784Z,52.25
2017-12-01T01:45:01.022Z,50.90
2017-12-01T01:47:29.110Z,58.08
2017-12-01T01:49:57.171Z,46.33
2017-12-01T01:52:26.176Z,55.58
2017-12-01T01:54:54.499Z,50.08
2017-12-01T01:57:23.363Z,49.00
2017-12-01T01:59:51.432Z,52.85
2017-12-01T02:02:19.532Z,49.75
2017-12-01T02:04:48.430Z,53.70
2017-12-01T02:07:16.566Z,49.28
2017-12-01T02:09:44.641Z,51.60
2017-12-01T02:12:12.728Z,57.85
2017-12-01T02:14:41.596Z,54.75
2017-12-01T02:17:09.675Z,51.78
2017-12-01T02:19:37.771Z,66.82
2017-12-01T02:22:07.586Z,57.40
2017-12-01T02:24:35.661Z,50.40
2017-12-01T02:27:03.749Z,50.95
2017-12-01T02:29:31.876Z,49.92
2017-12-01T02:32:00.445Z,55.17
2017-12-01T02:34:28.515Z,51.58
2017-12-01T02:36:56.591Z,52.30
2017-12-01T02:39:24.786Z,55.42
2017-12-01T02:41:53.689Z,54.03
2017-12-01T02:44:22.588Z,47.88
2017-12-01T02:46:50.651Z,51.17
2017-12-01T02:49:18.725Z,50.00
2017-12-01T02:51:46.812Z,48.95
2017-12-01T02:54:14.884Z,59.90
2017-12-01T02:56:42.960Z,49.63
2017-12-01T02:59:12.253Z,56.35
2017-12-01T03:01:40.380Z,51.47
2017-12-01T03:04:08.450Z,48.47
2017-12-01T03:06:36.877Z,46.95
2017-12-01T03:09:05.024Z,44.70
2017-12-01T03:11:33.946Z,58.60
2017-12-01T03:14:02.012Z,51.63
2017-12-01T03:16:30.129Z,53.33
2017-12-01T03:18:58.970Z,50.47
2017-12-01T03:21:27.043Z,47.50
2017-12-01T03:23:55.098Z,55.53
2017-12-01T03:26:23.188Z,53.95
2017-12-01T03:28:51.258Z,55.88
2017-12-01T03:31:19.460Z,57.35
2017-12-01T03:33:47.565Z,50.60
2017-12-01T03:36:16.405Z,53.97
2017-12-01T03:38:45.358Z,51.90
2017-12-01T03:41:13.435Z,50.35
2017-12-01T03:43:41.547Z,56.00
2017-12-01T03:46:09.606Z,55.47
2017-12-01T03:48:37.768Z,59.72
2017-12-01T03:51:05.931Z,62.08
2017-12-01T03:53:34.085Z,45.55
2017-12-01T03:56:02.112Z,57.40
2017-12-01T03:58:30.190Z,51.97
2017-12-01T04:01:00.123Z,56.35
2017-12-01T04:03:28.992Z,48.70
2017-12-01T04:05:57.120Z,53.22
2017-12-01T04:08:25.206Z,55.53
2017-12-01T04:10:53.368Z,49.53
2017-12-01T04:13:21.498Z,51.30
2017-12-01T04:15:49.632Z,53.50
2017-12-01T04:18:17.699Z,48.85
2017-12-01T04:20:45.774Z,54.63
2017-12-01T04:23:13.857Z,50.35
2017-12-01T04:25:41.935Z,52.88
2017-12-01T04:28:10.812Z,49.45
2017-12-01T04:30:38.886Z,54.50
2017-12-01T04:33:07.846Z,52.60
2017-12-01T04:35:36.008Z,48.63
2017-12-01T04:38:04.088Z,45.95
2017-12-01T04:40:32.179Z,48.10
2017-12-01T04:43:00.242Z,52.80
2017-12-01T04:45:28.315Z,50.80
2017-12-01T04:47:56.385Z,55.88
2017-12-01T04:50:24.446Z,53.78
2017-12-01T04:52:52.580Z,54.92
2017-12-01T04:55:21.441Z,52.03
2017-12-01T04:57:49.519Z,50.83
2017-12-01T05:00:17.582Z,52.28
2017-12-01T05:02:45.659Z,50.00
2017-12-01T05:05:14.241Z,54.05
2017-12-01T05:07:42.315Z,50.20
2017-12-01T05:10:10.387Z,50.00
2017-12-01T05:12:38.450Z,50.97
2017-12-01T05:15:06.519Z,56.05
2017-12-01T05:17:34.591Z,55.88
2017-12-01T05:20:02.654Z,51.15
2017-12-01T05:22:30.717Z,52.45
2017-12-01T05:24:59.586Z,55.95
2017-12-01T05:27:27.716Z,54.45
2017-12-01T05:29:55.748Z,56.00
2017-12-01T05:32:23.819Z,48.78
2017-12-01T05:34:51.917Z,54.78
2017-12-01T05:37:20.783Z,53.22
2017-12-01T05:39:48.864Z,52.90
2017-12-01T05:42:16.974Z,50.28
2017-12-01T05:44:45.047Z,54.95
2017-12-01T05:47:13.121Z,52.78
2017-12-01T05:49:41.210Z,57.25
2017-12-01T05:52:09.275Z,53.58
2017-12-01T05:54:37.351Z,51.67
2017-12-01T05:57:05.421Z,64.10
2017-12-01T05:59:33.506Z,48.67
2017-12-01T06:02:01.579Z,54.67
2017-12-01T06:04:29.660Z,57.25
2017-12-01T06:06:57.782Z,58.45
2017-12-01T06:09:25.846Z,50.65
2017-12-01T06:11:53.907Z,53.90
2017-12-01T06:14:21.992Z,55.55
2017-12-01T06:16:50.118Z,53.28
2017-12-01T06:19:18.188Z,71.07
2017-12-01T06:21:46.260Z,55.28
2017-12-01T06:24:14.697Z,61.45
2017-12-01T06:26:42.808Z,58.33
2017-12-01T06:29:10.865Z,73.10
2017-12-01T06:31:38.952Z,61.05
2017-12-01T06:34:07.025Z,70.75
2017-12-01T06:36:35.286Z,65.72
2017-12-01T06:39:03.475Z,65.62
2017-12-01T06:41:31.576Z,59.83
2017-12-01T06:43:59.693Z,65.72
2017-12-01T06:46:28.392Z,66.87
2017-12-01T06:48:56.462Z,82.32
2017-12-01T06:51:24.535Z,63.17
2017-12-01T06:53:52.614Z,72.00
2017-12-01T06:56:20.687Z,66.57
2017-12-01T06:58:48.742Z,59.17
2017-12-01T07:01:16.828Z,66.18
2017-12-01T07:03:44.898Z,59.47
2017-12-01T07:06:12.971Z,56.80
2017-12-01T07:08:41.143Z,63.92
2017-12-01T07:11:09.201Z,60.63
2017-12-01T07:13:37.300Z,65.10
2017-12-01T07:16:06.141Z,62.30
2017-12-01T07:18:34.220Z,69.45
2017-12-01T07:21:02.412Z,61.35
2017-12-01T07:23:30.507Z,67.40
2017-12-01T07:28:59.171Z,66.35
2017-12-01T07:31:27.244Z,67.72
2017-12-01T07:33:55.312Z,72.55
2017-12-01T07:36:23.399Z,67.78
2017-12-01T07:38:51.490Z,65.30
2017-12-01T07:41:20.346Z,68.95
2017-12-01T07:43:48.431Z,69.55
2017-12-01T07:46:16.503Z,59.50
2017-12-01T07:48:44.571Z,63.35
2017-12-01T07:51:12.659Z,66.35
2017-12-01T07:53:41.496Z,62.10
2017-12-01T07:56:09.579Z,58.05
2017-12-01T07:58:37.653Z,57.30
2017-12-01T08:01:05.727Z,51.63
2017-12-01T08:03:33.800Z,57.40
2017-12-01T08:06:02.121Z,60.28
2017-12-01T08:08:30.223Z,56.42
2017-12-01T08:10:58.300Z,49.65
2017-12-01T08:13:26.383Z,55.90
2017-12-01T08:16:12.627Z,53.25
2017-12-01T08:19:04.340Z,53.28
2017-12-01T08:21:51.245Z,59.47
2017-12-01T08:24:37.980Z,60.20
2017-12-01T08:27:06.827Z,51.58
2017-12-01T08:29:34.911Z,61.92
2017-12-01T08:32:03.759Z,56.08
2017-12-01T08:34:31.831Z,58.67
2017-12-01T08:36:59.926Z,55.95
2017-12-01T08:39:28.003Z,54.47
2017-12-01T08:41:56.069Z,55.75
2017-12-01T08:44:24.240Z,63.80
2017-12-01T08:46:52.317Z,55.60
2017-12-01T08:49:20.454Z,63.35
2017-12-01T08:51:48.531Z,61.45
2017-12-01T08:54:17.022Z,55.63
2017-12-01T08:56:45.096Z,63.42
2017-12-01T08:59:13.178Z,62.95
2017-12-01T09:01:41.238Z,62.25
2017-12-01T09:04:09.340Z,62.72
2017-12-01T09:06:38.185Z,56.15
2017-12-01T09:09:06.267Z,86.60
2017-12-01T09:11:34.327Z,90.30
2017-12-01T09:14:02.561Z,72.45
2017-12-01T09:16:32.298Z,65.87
2017-12-01T09:19:00.384Z,64.93
2017-12-01T09:21:28.467Z,59.97
2017-12-01T09:23:56.547Z,95.97
2017-12-01T09:26:24.734Z,79.47
2017-12-01T09:28:52.713Z,77.18
2017-12-01T09:31:21.559Z,61.85
2017-12-01T09:33:49.635Z,60.05
2017-12-01T09:36:17.708Z,72.15
2017-12-01T09:38:45.775Z,58.47
2017-12-01T09:41:13.848Z,64.93
2017-12-01T09:43:41.916Z,65.00
2017-12-01T09:46:09.987Z,62.08
2017-12-01T09:48:38.171Z,60.12
2017-12-01T09:51:06.243Z,63.53
2017-12-01T09:53:34.415Z,63.85
2017-12-01T09:56:02.487Z,61.10
2017-12-01T09:58:30.572Z,59.92
2017-12-01T10:00:59.407Z,65.43
2017-12-01T10:03:27.476Z,67.47
2017-12-01T10:05:55.540Z,64.87
2017-12-01T10:08:23.632Z,52.45
2017-12-01T10:10:51.704Z,58.95
2017-12-01T10:13:20.223Z,62.42
2017-12-01T10:15:48.459Z,58.87
2017-12-01T10:18:16.554Z,59.20
2017-12-01T10:20:44.618Z,57.40
2017-12-01T10:23:12.785Z,57.75
2017-12-01T10:25:41.636Z,59.92
2017-12-01T10:28:09.788Z,52.42
2017-12-01T10:30:38.635Z,52.47
2017-12-01T10:33:06.753Z,57.72
2017-12-01T10:35:34.834Z,53.70
2017-12-01T10:38:02.919Z,65.75
2017-12-01T10:40:31.026Z,52.85
2017-12-01T10:42:59.097Z,57.70
2017-12-01T10:45:27.283Z,49.97
2017-12-01T10:47:56.131Z,52.38
2017-12-01T10:50:24.248Z,55.12
2017-12-01T10:52:53.099Z,61.45
2017-12-01T10:55:21.196Z,61.67
2017-12-01T10:57:50.044Z,65.60
2017-12-01T11:00:18.120Z,54.35
2017-12-01T11:02:46.224Z,48.78
2017-12-01T11:05:14.502Z,53.63
2017-12-01T11:07:43.351Z,49.88
2017-12-01T11:10:12.009Z,51.20
2017-12-01T11:12:40.184Z,43.13
2017-12-01T11:15:08.254Z,43.20
2017-12-01T11:17:36.342Z,46.20
2017-12-01T11:20:09.287Z,43.47
2017-12-01T11:22:38.160Z,41.70
2017-12-01T11:25:06.243Z,44.22
2017-12-01T11:27:35.091Z,45.63
2017-12-01T11:30:03.180Z,47.72
2017-12-01T11:32:31.371Z,42.85
2017-12-01T11:35:00.211Z,45.05
2017-12-01T11:37:28.282Z,46.00
2017-12-01T11:39:56.343Z,45.10
2017-12-01T11:42:24.416Z,48.45
2017-12-01T11:44:52.522Z,39.30
2017-12-01T11:47:20.615Z,35.88
2017-12-01T11:49:49.459Z,39.13
2017-12-01T11:52:17.686Z,38.17
2017-12-01T11:54:47.318Z,43.20
2017-12-01T11:57:17.478Z,34.97
2017-12-01T11:59:45.579Z,36.88
2017-12-01T12:02:13.697Z,45.95
2017-12-01T12:04:41.838Z,42.30
2017-12-01T12:07:10.096Z,53.65
2017-12-01T12:09:38.948Z,43.17
2017-12-01T12:12:07.038Z,49.38
2017-12-01T12:14:35.127Z,38.72
2017-12-01T12:17:03.972Z,38.72
2017-12-01T12:19:32.043Z,39.20
2017-12-01T12:22:00.120Z,38.95
2017-12-01T12:24:28.188Z,39.13
2017-12-01T12:26:56.791Z,38.45
2017-12-01T12:29:24.862Z,35.92
2017-12-01T12:31:52.939Z,39.35
2017-12-01T12:34:21.162Z,38.50
2017-12-01T12:36:49.232Z,41.92
2017-12-01T12:39:17.318Z,42.30
2017-12-01T12:41:45.390Z,40.05
2017-12-01T12:44:13.498Z,39.00
2017-12-01T12:46:41.567Z,40.90
2017-12-01T12:49:09.632Z,39.53
2017-12-01T12:51:37.708Z,41.33
2017-12-01T12:54:05.783Z,37.63
2017-12-01T12:56:33.958Z,38.50
2017-12-01T12:59:02.032Z,45.00
2017-12-01T13:01:30.897Z,45.88
2017-12-01T13:03:58.971Z,39.42
2017-12-01T13:06:27.050Z,42.85
2017-12-01T13:08:55.128Z,38.55
2017-12-01T13:11:23.234Z,38.20
2017-12-01T13:13:51.363Z,34.95
2017-12-01T13:16:19.429Z,48.63
2017-12-01T13:18:47.500Z,37.58
2017-12-01T13:21:15.582Z,43.55
2017-12-01T13:23:43.656Z,37.05
2017-12-01T13:26:11.727Z,35.85
2017-12-01T13:28:39.795Z,38.50
2017-12-01T13:31:08.652Z,36.78
2017-12-01T13:33:36.722Z,40.95
2017-12-01T13:36:04.795Z,38.72
2017-12-01T13:38:32.867Z,47.47
2017-12-01T13:41:00.949Z,39.83
2017-12-01T13:43:29.028Z,45.88
2017-12-01T13:45:57.102Z,44.72
2017-12-01T13:48:25.178Z,47.22
2017-12-01T13:50:54.029Z,48.87
2017-12-01T13:53:22.152Z,48.60
2017-12-01T13:55:50.999Z,46.88
2017-12-01T13:58:19.084Z,49.42
2017-12-01T14:00:47.256Z,49.85
2017-12-01T14:03:15.346Z,47.20
2017-12-01T14:05:44.193Z,46.40
2017-12-01T14:08:12.262Z,48.78
2017-12-01T14:10:40.778Z,53.55
2017-12-01T14:13:08.851Z,43.35
2017-12-01T14:15:36.923Z,45.60
2017-12-01T14:18:05.100Z,47.33
2017-12-01T14:20:33.184Z,41.08
2017-12-01T14:23:02.035Z,44.88
2017-12-01T14:25:30.119Z,49.78
2017-12-01T14:27:58.188Z,54.00
2017-12-01T14:30:26.309Z,44.78
2017-12-01T14:32:55.143Z,43.20
2017-12-01T14:35:23.319Z,50.55
2017-12-01T14:37:51.482Z,47.53
2017-12-01T14:40:19.551Z,46.37
2017-12-01T14:42:47.624Z,41.42
2017-12-01T14:45:27.388Z,46.40
2017-12-01T14:47:55.466Z,43.47
2017-12-01T14:50:23.532Z,51.97
2017-12-01T14:52:51.599Z,50.60
2017-12-01T14:55:19.676Z,43.80
2017-12-01T14:57:48.608Z,50.28
2017-12-01T15:00:16.697Z,47.20
2017-12-01T15:02:44.778Z,51.85
2017-12-01T15:05:12.962Z,50.15
2017-12-01T15:07:41.066Z,48.67
2017-12-01T15:10:09.119Z,47.13
2017-12-01T15:12:37.242Z,46.00
2017-12-01T15:15:05.331Z,43.63
2017-12-01T15:17:33.421Z,45.42
2017-12-01T15:20:01.488Z,42.40
2017-12-01T15:22:29.563Z,44.70
2017-12-01T15:24:57.627Z,46.92
2017-12-01T15:27:25.712Z,50.20
2017-12-01T15:29:53.784Z,48.00
2017-12-01T15:32:21.837Z,45.38
2017-12-01T15:34:49.931Z,47.85
2017-12-01T15:37:19.122Z,48.35
2017-12-01T15:39:47.180Z,49.88
2017-12-01T15:42:15.275Z,53.70
2017-12-01T15:44:44.147Z,46.37
2017-12-01T15:47:12.307Z,44.38
2017-12-01T15:49:40.506Z,43.85
2017-12-01T15:52:09.379Z,49.30
2017-12-01T15:54:37.455Z,46.08
2017-12-01T15:57:05.522Z,49.30
2017-12-01T15:59:33.606Z,47.47
2017-12-01T16:02:01.659Z,50.70
2017-12-01T16:04:29.758Z,46.63
2017-12-01T16:06:58.628Z,47.03
2017-12-01T16:09:26.727Z,52.00
2017-12-01T16:11:54.801Z,50.55
2017-12-01T16:14:22.972Z,42.08
2017-12-01T16:16:51.815Z,46.28
2017-12-01T16:19:19.887Z,48.22
2017-12-01T16:21:47.956Z,50.22
2017-12-01T16:24:16.029Z,45.70
2017-12-01T16:26:44.127Z,48.85
2017-12-01T16:29:12.991Z,46.25
2017-12-01T16:31:41.171Z,42.60
2017-12-01T16:34:09.242Z,50.28
2017-12-01T16:36:37.312Z,41.55
2017-12-01T16:39:05.479Z,54.60
2017-12-01T16:41:33.567Z,49.15
2017-12-01T16:44:02.479Z,51.25
2017-12-01T16:46:30.546Z,54.42
2017-12-01T16:48:59.392Z,52.72
2017-12-01T16:51:27.473Z,47.55
2017-12-01T16:53:55.647Z,47.88
2017-12-01T16:56:23.859Z,45.03
2017-12-01T16:58:51.928Z,46.33
2017-12-01T17:01:20.006Z,54.85
2017-12-01T17:03:48.075Z,51.30
2017-12-01T17:06:16.168Z,48.60
2017-12-01T17:08:44.264Z,48.10
2017-12-01T17:11:12.351Z,55.35
2017-12-01T17:13:40.426Z,50.60
2017-12-01T17:16:09.368Z,48.87
2017-12-01T17:18:37.448Z,49.05
2017-12-01T17:21:05.519Z,53.85
2017-12-01T17:23:33.603Z,49.15
2017-12-01T17:26:02.325Z,57.88
2017-12-01T17:28:31.201Z,53.72
2017-12-01T17:30:59.283Z,54.22
2017-12-01T17:33:28.135Z,48.35
2017-12-01T17:35:56.203Z,52.28
2017-12-01T17:38:24.380Z,59.60
2017-12-01T17:40:52.449Z,52.55
2017-12-01T17:43:20.523Z,51.40
2017-12-01T17:45:48.615Z,66.10
2017-12-01T17:48:16.775Z,53.65
2017-12-01T17:50:44.860Z,57.38
2017-12-01T17:53:12.918Z,56.55
2017-12-01T17:55:41.008Z,60.72
2017-12-01T17:58:09.836Z,55.75
2017-12-01T18:00:37.939Z,58.58
2017-12-01T18:03:05.972Z,55.95
2017-12-01T18:05:34.062Z,61.88
2017-12-01T18:08:02.163Z,66.65
2017-12-01T18:10:30.334Z,51.60
2017-12-01T18:12:58.528Z,58.95
2017-12-01T18:15:26.619Z,55.83
2017-12-01T18:17:55.048Z,53.72
2017-12-01T18:20:23.122Z,43.38
2017-12-01T18:22:51.191Z,52.40
2017-12-01T18:32:17.570Z,46.08
2017-12-01T18:34:45.638Z,43.10
2017-12-01T18:37:13.726Z,44.65
2017-12-01T18:39:41.797Z,43.15
2017-12-01T18:42:10.644Z,40.33
2017-12-01T18:44:38.707Z,42.05
2017-12-01T18:47:06.784Z,46.55
2017-12-01T18:49:34.849Z,51.85
2017-12-01T18:52:03.595Z,42.88
2017-12-01T18:54:32.430Z,42.97
2017-12-01T18:57:00.499Z,39.28
2017-12-01T18:59:28.582Z,38.60
2017-12-01T19:01:56.668Z,41.90
2017-12-01T19:04:24.736Z,45.35
2017-12-01T19:06:52.816Z,45.80
2017-12-01T19:09:20.893Z,47.50
2017-12-01T19:11:49.058Z,40.15
2017-12-01T19:14:17.147Z,49.63
2017-12-01T19:16:46.077Z,46.88
2017-12-01T19:19:14.195Z,45.45
2017-12-01T19:21:42.275Z,50.45
2017-12-01T19:24:11.120Z,50.53
2017-12-01T19:26:39.192Z,57.33
2017-12-01T19:29:07.312Z,51.10
2017-12-01T19:31:36.164Z,46.92
2017-12-01T19:34:04.227Z,42.10
2017-12-01T19:36:32.308Z,46.70
2017-12-01T19:39:00.393Z,47.15
2017-12-01T19:41:28.523Z,47.15
2017-12-01T19:43:56.594Z,49.00
2017-12-01T19:46:24.751Z,50.25
2017-12-01T19:48:52.838Z,48.35
2017-12-01T19:51:20.908Z,56.45
2017-12-01T19:53:48.979Z,49.78
2017-12-01T19:56:17.060Z,48.17
2017-12-01T19:58:45.139Z,51.08
2017-12-01T20:01:13.243Z,60.75
2017-12-01T20:03:42.084Z,52.05
2017-12-01T20:06:10.174Z,53.03
2017-12-01T20:08:38.242Z,59.63
2017-12-01T20:11:06.449Z,47.00
2017-12-01T20:13:35.294Z,53.72
2017-12-01T20:16:03.393Z,54.05
2017-12-01T20:18:31.461Z,58.58
2017-12-01T20:20:59.530Z,48.47
2017-12-01T20:23:27.620Z,46.95
2017-12-01T20:25:56.520Z,47.88
2017-12-01T20:28:25.379Z,56.08
2017-12-01T20:30:53.442Z,58.65
2017-12-01T20:33:21.515Z,52.80
2017-12-01T20:35:49.592Z,62.33
2017-12-01T20:38:17.681Z,53.42
2017-12-01T20:40:45.757Z,55.22
2017-12-01T20:43:14.620Z,46.88
2017-12-01T20:45:42.688Z,53.78
2017-12-01T20:48:10.756Z,62.13
2017-12-01T20:50:38.834Z,53.75
2017-12-01T20:53:07.086Z,52.15
2017-12-01T20:55:35.159Z,59.65
2017-12-01T20:58:03.284Z,65.70
2017-12-01T21:00:31.335Z,52.95
2017-12-01T21:02:59.422Z,54.92
2017-12-01T21:05:28.266Z,59.40
2017-12-01T21:07:56.399Z,56.95
2017-12-01T21:10:24.588Z,55.47
2017-12-01T21:12:52.647Z,49.67
2017-12-01T21:15:20.725Z,55.42
2017-12-01T21:17:48.839Z,48.28
2017-12-01T21:20:16.927Z,59.50
2017-12-01T21:22:45.770Z,52.62
2017-12-01T21:25:13.839Z,51.88
2017-12-01T21:27:42.121Z,45.50
2017-12-01T21:30:10.745Z,54.15
2017-12-01T21:32:40.203Z,50.35
2017-12-01T21:35:08.337Z,54.25
2017-12-01T21:37:36.450Z,51.90
2017-12-01T21:40:04.518Z,48.80
2017-12-01T21:42:32.600Z,52.53
2017-12-01T21:45:00.671Z,52.15
2017-12-01T21:47:28.743Z,53.25
2017-12-01T21:49:56.820Z,49.90
2017-12-01T21:52:24.903Z,54.60
2017-12-01T21:54:53.063Z,48.33
2017-12-01T21:57:21.141Z,53.97
2017-12-01T21:59:49.219Z,60.08
2017-12-01T22:02:17.381Z,45.85
2017-12-01T22:04:45.448Z,58.35
2017-12-01T22:07:13.514Z,51.05
2017-12-01T22:09:41.591Z,62.33
2017-12-01T22:12:09.654Z,56.92
2017-12-01T22:14:37.731Z,57.00
2017-12-01T22:17:05.849Z,50.92
2017-12-01T22:19:33.999Z,52.85
2017-12-01T22:22:02.852Z,50.33
2017-12-01T22:24:31.012Z,47.38
2017-12-01T22:26:59.078Z,54.25
2017-12-01T22:29:27.223Z,59.75
2017-12-01T22:31:56.060Z,48.75
2017-12-01T22:34:24.139Z,54.72
2017-12-01T22:36:52.315Z,55.47
2017-12-01T22:39:20.392Z,48.92
2017-12-01T22:41:48.459Z,50.53
2017-12-01T22:44:16.633Z,57.58
2017-12-01T22:46:44.701Z,49.78
2017-12-01T22:49:12.773Z,57.85
2017-12-01T22:51:40.839Z,54.35
2017-12-01T22:54:08.910Z,49.08
2017-12-01T22:56:36.973Z,55.05
2017-12-01T22:59:05.046Z,58.58
2017-12-01T23:01:33.111Z,48.45
2017-12-01T23:04:01.196Z,48.50
2017-12-01T23:06:29.268Z,57.13
2017-12-01T23:08:57.430Z,51.85
2017-12-01T23:11:25.515Z,49.33
2017-12-01T23:13:53.595Z,51.08
2017-12-01T23:16:21.726Z,52.13
2017-12-01T23:18:49.795Z,60.92
2017-12-01T23:21:17.866Z,45.12
2017-12-01T23:23:46.942Z,49.58
2017-12-01T23:26:15.055Z,50.08
2017-12-01T23:28:43.123Z,51.35
2017-12-01T23:31:11.197Z,58.10
2017-12-01T23:33:39.267Z,54.63
2017-12-01T23:36:07.339Z,49.85
2017-12-01T23:38:35.407Z,51.13
2017-12-01T23:41:03.498Z,52.65
2017-12-01T23:43:32.331Z,51.78
2017-12-01T23:46:00.404Z,49.97
2017-12-01T23:48:28.511Z,50.90
2017-12-01T23:50:56.583Z,48.58
2017-12-01T23:53:24.662Z,51.47
2017-12-01T23:55:52.722Z,45.17
2017-12-01T23:58:20.807Z,46.25
